PWSweather.com
Personal Weather Stations
Station Observations

ChardChardGB

Lat: 50.877408, Lon: -2.94964741

Elevation: 341

Station Type: WS3083

http://www.merriott-astro.co.uk/weather/index.htm

Latest ConditionsUpdated 11:10:05 AM GMT Monday, Apr 24, 2017
Currently Today's Max Today's Min Today's Average
Temperature 57.6°F14.2°C 58.5°F14.7°C 40.3°F4.6°C 47.6°F8.7°C
Dew Point 39.1°F3.9°C 42.1°F5.6°C 34.8°F1.6°C 37.6°F3.1°C
Winds 8.6 mph W13.8 kmh W 9.7 mph W15.6 kmh W - 2.8 mph 4.5 kmh
Wind Gusts 12.1 mph19.5 kmh 13.6 mph21.9 kmh - -
Humidity 50% 84% 44% 70%
Pressure 29.59 in1002.0 mb 29.73 in1006.8 mb 29.59 in1002.0 mb -
Hour Temp Dew Point Humidity Winds Wind Gusts Pressure Precip Precip Rate Daily Precip Total
11:10 AM 57.6°F14.2°C 39.1°F3.9°C 50% 8.6 mph W13.8 kmh W 12.1 mph19.5 kmh 29.59 in1002.0 mb 0.00 in0.0 mm 0.00 in0.0 mm 0.00 in0.0 mm
11:00 AM 57.6°F14.2°C 38.6°F3.7°C 49% 9.2 mph NW14.8 kmh NW 12.1 mph19.5 kmh 29.59 in1002.0 mb 0.00 in0.0 mm 0.00 in0.0 mm 0.00 in0.0 mm
10:50 AM 57.7°F14.3°C 38.7°F3.7°C 49% 8.2 mph NW13.2 kmh NW 10.7 mph17.2 kmh 29.59 in1002.0 mb 0.00 in0.0 mm 0.00 in0.0 mm 0.00 in0.0 mm
10:40 AM 57.9°F14.4°C 39.4°F4.1°C 50% 8.5 mph WNW13.7 kmh WNW 12.1 mph19.5 kmh 29.59 in1002.0 mb 0.00 in0.0 mm 0.00 in0.0 mm 0.00 in0.0 mm
10:30 AM 58.1°F14.5°C 39.6°F4.2°C 50% 8.4 mph WNW13.5 kmh WNW 11.4 mph18.3 kmh 29.59 in1002.0 mb 0.00 in0.0 mm 0.00 in0.0 mm 0.00 in0.0 mm
10:20 AM 58.3°F14.6°C 39.2°F4.0°C 49% 7.1 mph W11.4 kmh W 10.7 mph17.2 kmh 29.60 in1002.4 mb 0.00 in0.0 mm 0.00 in0.0 mm 0.00 in0.0 mm
10:10 AM 57.7°F14.3°C 39.2°F4.0°C 50% 8.3 mph W13.4 kmh W 9.8 mph15.8 kmh 29.60 in1002.4 mb 0.00 in0.0 mm 0.00 in0.0 mm 0.00 in0.0 mm
10:00 AM 57.9°F14.4°C 37.8°F3.2°C 47% 8.8 mph W14.2 kmh W 13.0 mph20.9 kmh 29.61 in1002.7 mb 0.00 in0.0 mm 0.00 in0.0 mm 0.00 in0.0 mm
09:50 AM 58.5°F14.7°C 39.4°F4.1°C 49% 8.0 mph WSW12.9 kmh WSW 9.8 mph15.8 kmh 29.61 in1002.7 mb 0.00 in0.0 mm 0.00 in0.0 mm 0.00 in0.0 mm
09:40 AM 57.4°F14.1°C 37.3°F2.9°C 47% 9.6 mph WNW15.4 kmh WNW 13.6 mph21.9 kmh 29.61 in1002.7 mb 0.00 in0.0 mm 0.00 in0.0 mm 0.00 in0.0 mm
09:30 AM 57.9°F14.4°C 37.3°F2.9°C 46% 9.1 mph WNW14.6 kmh WNW 11.4 mph18.3 kmh 29.62 in1003.0 mb 0.00 in0.0 mm 0.00 in0.0 mm 0.00 in0.0 mm
09:20 AM 57.9°F14.4°C 37.8°F3.2°C 47% 6.9 mph W11.1 kmh W 9.2 mph14.8 kmh 29.61 in1002.7 mb 0.00 in0.0 mm 0.00 in0.0 mm 0.00 in0.0 mm
09:10 AM 56.7°F13.7°C 36.1°F2.3°C 46% 9.3 mph WNW15.0 kmh WNW 13.0 mph20.9 kmh 29.61 in1002.7 mb 0.00 in0.0 mm 0.00 in0.0 mm 0.00 in0.0 mm
09:00 AM 57.0°F13.9°C 35.3°F1.8°C 44% 9.7 mph W15.6 kmh W 11.4 mph18.3 kmh 29.61 in1002.7 mb 0.00 in0.0 mm 0.00 in0.0 mm 0.00 in0.0 mm
08:50 AM 57.4°F14.1°C 36.2°F2.3°C 45% 8.3 mph W13.4 kmh W 9.8 mph15.8 kmh 29.61 in1002.7 mb 0.00 in0.0 mm 0.00 in0.0 mm 0.00 in0.0 mm
08:40 AM 57.7°F14.3°C 36.6°F2.6°C 45% 7.5 mph W12.1 kmh W 9.8 mph15.8 kmh 29.62 in1003.0 mb 0.00 in0.0 mm 0.00 in0.0 mm 0.00 in0.0 mm
08:30 AM 57.7°F14.3°C 37.7°F3.2°C 47% 6.0 mph W9.7 kmh W 8.3 mph13.4 kmh 29.62 in1003.0 mb 0.00 in0.0 mm 0.00 in0.0 mm 0.00 in0.0 mm
08:20 AM 58.3°F14.6°C 40.2°F4.6°C 51% 1.9 mph WSW3.1 kmh WSW 6.9 mph11.1 kmh 29.62 in1003.0 mb 0.00 in0.0 mm 0.00 in0.0 mm 0.00 in0.0 mm
08:10 AM 57.6°F14.2°C 40.1°F4.5°C 52% 2.3 mph S3.7 kmh S 3.8 mph6.1 kmh 29.62 in1003.0 mb 0.00 in0.0 mm 0.00 in0.0 mm 0.00 in0.0 mm
08:00 AM 55.9°F13.3°C 41.4°F5.2°C 58% 1.1 mph ESE1.8 kmh ESE 3.1 mph5.0 kmh 29.62 in1003.0 mb 0.00 in0.0 mm 0.00 in0.0 mm 0.00 in0.0 mm
07:50 AM 54.0°F12.2°C 42.1°F5.6°C 64% 2.3 mph S3.7 kmh S 4.5 mph7.2 kmh 29.62 in1003.0 mb 0.00 in0.0 mm 0.00 in0.0 mm 0.00 in0.0 mm
07:40 AM 52.2°F11.2°C 40.4°F4.7°C 64% 4.6 mph S7.4 kmh S 5.4 mph8.7 kmh 29.63 in1003.4 mb 0.00 in0.0 mm 0.00 in0.0 mm 0.00 in0.0 mm
07:30 AM 50.7°F10.4°C 39.4°F4.1°C 65% 3.3 mph S5.3 kmh S 4.5 mph7.2 kmh 29.63 in1003.4 mb 0.00 in0.0 mm 0.00 in0.0 mm 0.00 in0.0 mm
07:20 AM 51.1°F10.6°C 39.7°F4.3°C 65% 1.9 mph S3.1 kmh S 3.1 mph5.0 kmh 29.63 in1003.4 mb 0.00 in0.0 mm 0.00 in0.0 mm 0.00 in0.0 mm
07:10 AM 49.8°F9.9°C 40.1°F4.5°C 69% 0.7 mph SW1.1 kmh SW 1.6 mph2.6 kmh 29.64 in1003.7 mb 0.00 in0.0 mm 0.00 in0.0 mm 0.00 in0.0 mm
07:00 AM 48.4°F9.1°C 39.1°F3.9°C 70% 1.4 mph SSW2.3 kmh SSW 2.2 mph3.5 kmh 29.64 in1003.7 mb 0.00 in0.0 mm 0.00 in0.0 mm 0.00 in0.0 mm
06:50 AM 47.1°F8.4°C 37.8°F3.2°C 70% 2.3 mph S3.7 kmh S 3.1 mph5.0 kmh 29.64 in1003.7 mb 0.00 in0.0 mm 0.00 in0.0 mm 0.00 in0.0 mm
06:40 AM 46.8°F8.2°C 38.2°F3.4°C 72% 0.9 mph S1.4 kmh S 3.1 mph5.0 kmh 29.64 in1003.7 mb 0.00 in0.0 mm 0.00 in0.0 mm 0.00 in0.0 mm
06:30 AM 45.5°F7.5°C 37.7°F3.2°C 74% 0.4 mph NW0.6 kmh NW 0.7 mph1.1 kmh 29.64 in1003.7 mb 0.00 in0.0 mm 0.00 in0.0 mm 0.00 in0.0 mm
06:20 AM 44.1°F6.7°C 38.3°F3.5°C 80% 0.8 mph W1.3 kmh W 2.2 mph3.5 kmh 29.64 in1003.7 mb 0.00 in0.0 mm 0.00 in0.0 mm 0.00 in0.0 mm
06:10 AM 43.0°F6.1°C 37.2°F2.9°C 80% 2.1 mph SSW3.4 kmh SSW 3.8 mph6.1 kmh 29.65 in1004.1 mb 0.00 in0.0 mm 0.00 in0.0 mm 0.00 in0.0 mm
06:00 AM 42.6°F5.9°C 36.9°F2.7°C 80% 3.3 mph SSE5.3 kmh SSE 3.8 mph6.1 kmh 29.64 in1003.7 mb 0.00 in0.0 mm 0.00 in0.0 mm 0.00 in0.0 mm
05:50 AM 42.4°F5.8°C 37.0°F2.8°C 81% 2.2 mph S3.5 kmh S 3.8 mph6.1 kmh 29.65 in1004.1 mb 0.00 in0.0 mm 0.00 in0.0 mm 0.00 in0.0 mm
05:40 AM 42.1°F5.6°C 36.7°F2.6°C 81% 2.1 mph S3.4 kmh S 3.1 mph5.0 kmh 29.65 in1004.1 mb 0.00 in0.0 mm 0.00 in0.0 mm 0.00 in0.0 mm
05:30 AM 41.7°F5.4°C 36.6°F2.6°C 82% 1.1 mph SSW1.8 kmh SSW 3.1 mph5.0 kmh 29.65 in1004.1 mb 0.00 in0.0 mm 0.00 in0.0 mm 0.00 in0.0 mm
05:20 AM 41.4°F5.2°C 36.3°F2.4°C 82% 1.1 mph S1.8 kmh S 2.2 mph3.5 kmh 29.65 in1004.1 mb 0.00 in0.0 mm 0.00 in0.0 mm 0.00 in0.0 mm
05:10 AM 40.8°F4.9°C 35.8°F2.1°C 82% 0.6 mph S1.0 kmh S 2.2 mph3.5 kmh 29.65 in1004.1 mb 0.00 in0.0 mm 0.00 in0.0 mm 0.00 in0.0 mm
05:00 AM 40.6°F4.8°C 35.3°F1.8°C 81% 0.1 mph NW0.2 kmh NW 1.6 mph2.6 kmh 29.65 in1004.1 mb 0.00 in0.0 mm 0.00 in0.0 mm 0.00 in0.0 mm
04:50 AM 40.6°F4.8°C 35.3°F1.8°C 81% 1.2 mph WNW1.9 kmh WNW 3.1 mph5.0 kmh 29.65 in1004.1 mb 0.00 in0.0 mm 0.00 in0.0 mm 0.00 in0.0 mm
04:40 AM 40.3°F4.6°C 34.9°F1.6°C 81% 0.8 mph NE1.3 kmh NE 1.6 mph2.6 kmh 29.66 in1004.4 mb 0.00 in0.0 mm 0.00 in0.0 mm 0.00 in0.0 mm
04:30 AM 40.3°F4.6°C 34.9°F1.6°C 81% 0.8 mph SW1.3 kmh SW 1.6 mph2.6 kmh 29.66 in1004.4 mb 0.00 in0.0 mm 0.00 in0.0 mm 0.00 in0.0 mm
04:20 AM 40.5°F4.7°C 34.8°F1.6°C 80% 0.8 mph SE1.3 kmh SE 1.6 mph2.6 kmh 29.65 in1004.1 mb 0.00 in0.0 mm 0.00 in0.0 mm 0.00 in0.0 mm
04:10 AM 40.6°F4.8°C 35.0°F1.7°C 80% 0.3 mph S0.5 kmh S 1.6 mph2.6 kmh 29.66 in1004.4 mb 0.00 in0.0 mm 0.00 in0.0 mm 0.00 in0.0 mm
04:00 AM 41.0°F5.0°C 35.3°F1.8°C 80% 0.3 mph S0.5 kmh S 1.6 mph2.6 kmh 29.66 in1004.4 mb 0.00 in0.0 mm 0.00 in0.0 mm 0.00 in0.0 mm
03:50 AM 41.7°F5.4°C 36.3°F2.4°C 81% 0.6 mph S1.0 kmh S 1.6 mph2.6 kmh 29.66 in1004.4 mb 0.00 in0.0 mm 0.00 in0.0 mm 0.00 in0.0 mm
03:40 AM 41.9°F5.5°C 36.5°F2.5°C 81% 0.3 mph SSW0.5 kmh SSW 1.6 mph2.6 kmh 29.66 in1004.4 mb 0.00 in0.0 mm 0.00 in0.0 mm 0.00 in0.0 mm
03:30 AM 41.7°F5.4°C 36.3°F2.4°C 81% 0.1 mph S0.2 kmh S 0.7 mph1.1 kmh 29.67 in1004.7 mb 0.00 in0.0 mm 0.00 in0.0 mm 0.00 in0.0 mm
03:20 AM 41.7°F5.4°C 36.3°F2.4°C 81% 0.1 mph S0.2 kmh S 0.7 mph1.1 kmh 29.67 in1004.7 mb 0.00 in0.0 mm 0.00 in0.0 mm 0.00 in0.0 mm
03:10 AM 41.9°F5.5°C 36.5°F2.5°C 81% 0.7 mph SE1.1 kmh SE 1.6 mph2.6 kmh 29.68 in1005.1 mb 0.00 in0.0 mm 0.00 in0.0 mm 0.00 in0.0 mm
03:00 AM 41.5°F5.3°C 36.2°F2.3°C 81% 0.7 mph SSW1.1 kmh SSW 1.6 mph2.6 kmh 29.67 in1004.7 mb 0.00 in0.0 mm 0.00 in0.0 mm 0.00 in0.0 mm
02:50 AM 41.5°F5.3°C 36.5°F2.5°C 82% 0.4 mph NNE0.6 kmh NNE 1.6 mph2.6 kmh 29.68 in1005.1 mb 0.00 in0.0 mm 0.00 in0.0 mm 0.00 in0.0 mm
02:40 AM 41.5°F5.3°C 36.5°F2.5°C 82% 0.5 mph S0.8 kmh S 1.6 mph2.6 kmh 29.68 in1005.1 mb 0.00 in0.0 mm 0.00 in0.0 mm 0.00 in0.0 mm
02:30 AM 41.5°F5.3°C 36.5°F2.5°C 82% 0.3 mph WSW0.5 kmh WSW 0.7 mph1.1 kmh 29.69 in1005.4 mb 0.00 in0.0 mm 0.00 in0.0 mm 0.00 in0.0 mm
02:20 AM 41.5°F5.3°C 36.5°F2.5°C 82% 0.3 mph W0.5 kmh W 1.6 mph2.6 kmh 29.69 in1005.4 mb 0.00 in0.0 mm 0.00 in0.0 mm 0.00 in0.0 mm
02:10 AM 41.7°F5.4°C 36.6°F2.6°C 82% 0.4 mph SW0.6 kmh SW 1.6 mph2.6 kmh 29.69 in1005.4 mb 0.00 in0.0 mm 0.00 in0.0 mm 0.00 in0.0 mm
02:00 AM 41.9°F5.5°C 36.8°F2.7°C 82% Calm Calm -- 29.69 in1005.4 mb 0.00 in0.0 mm 0.00 in0.0 mm 0.00 in0.0 mm
01:50 AM 42.1°F5.6°C 37.0°F2.8°C 82% 0.3 mph SE0.5 kmh SE 2.2 mph3.5 kmh 29.69 in1005.4 mb 0.00 in0.0 mm 0.00 in0.0 mm 0.00 in0.0 mm
01:40 AM 42.1°F5.6°C 37.0°F2.8°C 82% Calm Calm -- 29.70 in1005.8 mb 0.00 in0.0 mm 0.00 in0.0 mm 0.00 in0.0 mm
01:30 AM 42.4°F5.8°C 37.3°F2.9°C 82% Calm Calm -- 29.69 in1005.4 mb 0.00 in0.0 mm 0.00 in0.0 mm 0.00 in0.0 mm
01:20 AM 42.4°F5.8°C 37.3°F2.9°C 82% Calm Calm -- 29.70 in1005.8 mb 0.00 in0.0 mm 0.00 in0.0 mm 0.00 in0.0 mm
01:10 AM 42.6°F5.9°C 37.8°F3.2°C 83% 0.1 mph NE0.2 kmh NE 0.7 mph1.1 kmh 29.70 in1005.8 mb 0.00 in0.0 mm 0.00 in0.0 mm 0.00 in0.0 mm
01:00 AM 43.2°F6.2°C 38.4°F3.6°C 83% 0.4 mph NE0.6 kmh NE 1.6 mph2.6 kmh 29.70 in1005.8 mb 0.00 in0.0 mm 0.00 in0.0 mm 0.00 in0.0 mm
12:50 AM 43.7°F6.5°C 39.2°F4.0°C 84% 1.4 mph S2.3 kmh S 3.1 mph5.0 kmh 29.71 in1006.1 mb 0.00 in0.0 mm 0.00 in0.0 mm 0.00 in0.0 mm
12:40 AM 43.5°F6.4°C 39.0°F3.9°C 84% 1.3 mph S2.1 kmh S 2.2 mph3.5 kmh 29.72 in1006.4 mb 0.00 in0.0 mm 0.00 in0.0 mm 0.00 in0.0 mm
12:30 AM 43.3°F6.3°C 38.8°F3.8°C 84% 0.7 mph S1.1 kmh S 1.6 mph2.6 kmh 29.72 in1006.4 mb 0.00 in0.0 mm 0.00 in0.0 mm 0.00 in0.0 mm
12:20 AM 43.5°F6.4°C 39.0°F3.9°C 84% 0.7 mph SSW1.1 kmh SSW 1.6 mph2.6 kmh 29.72 in1006.4 mb 0.00 in0.0 mm 0.00 in0.0 mm 0.00 in0.0 mm
12:10 AM 43.9°F6.6°C 39.4°F4.1°C 84% 0.9 mph S1.4 kmh S 1.6 mph2.6 kmh 29.72 in1006.4 mb 0.00 in0.0 mm 0.00 in0.0 mm 0.00 in0.0 mm
12:00 AM 43.9°F6.6°C 39.4°F4.1°C 84% 0.2 mph S0.3 kmh S 1.6 mph2.6 kmh 29.73 in1006.8 mb 0.00 in0.0 mm 0.00 in0.0 mm 0.00 in0.0 mm